Keewatin, Canada
Current Conditions -  °F | °C
As of 11:00 AM on Friday 24 Oct 2014 (Local Time) from CYQK Reporting Station
Broken Clouds Broken Clouds  
Wind Chill: 54°   Ceiling: 17000
Heat Index: 54°   Visibility: 15mi
Dew Point: 43°   Wind: 10mph
Humidity: 67%   Direction: 200°SSW
Pressure: 29.69"   Gusts: NA
Location:  49.76°N, 94.56°W
Report Text: CYQK 241600Z 20009KT 15SM SCT120 BKN170 12/06 A2969 RMK AC3AC3 SLP060 DENSITY ALT 1500FT
Loading
Personal Weather Stations






























Interactive Weather Map
Tropical Storm Tracking
New forecast layout! Learn more

10-Day Weather Forecast

Advertisements
Track Severe Weather on mobile